sensor_id;sensor_type;location;lat;lon;timestamp;P1;durP1;ratioP1;P2;durP2;ratioP2
82656;SDS011;72357;52.110;5.252;2023-08-21T00:00:34;6.6;;;2.4;;
82656;SDS011;72357;52.110;5.252;2023-08-21T00:03:47;7.7;;;2.9;;
82656;SDS011;72357;52.110;5.252;2023-08-21T00:05:25;9.31;;;2.9;;
82656;SDS011;72357;52.110;5.252;2023-08-21T00:07:02;7.6;;;3.0;;
82656;SDS011;72357;52.110;5.252;2023-08-21T00:10:16;6.3;;;2.7;;
82656;SDS011;72357;52.110;5.252;2023-08-21T00:11:53;9.21;;;2.9;;
82656;SDS011;72357;52.110;5.252;2023-08-21T00:13:30;6.4;;;2.4;;
82656;SDS011;72357;52.110;5.252;2023-08-21T00:15:08;7.3;;;2.8;;
82656;SDS011;72357;52.110;5.252;2023-08-21T00:18:22;7.3;;;2.8;;
82656;SDS011;72357;52.110;5.252;2023-08-21T00:20:00;9.6;;;3.2;;
82656;SDS011;72357;52.110;5.252;2023-08-21T00:21:37;6.8;;;2.6;;
82656;SDS011;72357;52.110;5.252;2023-08-21T00:24:51;7.9;;;3.1;;
82656;SDS011;72357;52.110;5.252;2023-08-21T00:26:28;8.9;;;3.0;;
82656;SDS011;72357;52.110;5.252;2023-08-21T00:28:05;8.0;;;2.6;;
82656;SDS011;72357;52.110;5.252;2023-08-21T00:29:42;7.3;;;2.7;;
82656;SDS011;72357;52.110;5.252;2023-08-21T00:32:56;4.3;;;2.31;;
82656;SDS011;72357;52.110;5.252;2023-08-21T00:34:33;6.2;;;2.7;;
82656;SDS011;72357;52.110;5.252;2023-08-21T00:36:10;5.0;;;2.31;;
82656;SDS011;72357;52.110;5.252;2023-08-21T00:39:22;5.5;;;2.4;;
82656;SDS011;72357;52.110;5.252;2023-08-21T00:40:59;5.5;;;2.5;;
82656;SDS011;72357;52.110;5.252;2023-08-21T00:42:36;7.3;;;2.6;;
82656;SDS011;72357;52.110;5.252;2023-08-21T00:45:50;7.4;;;3.0;;
82656;SDS011;72357;52.110;5.252;2023-08-21T00:47:27;6.3;;;2.8;;
82656;SDS011;72357;52.110;5.252;2023-08-21T00:49:04;7.4;;;2.9;;
82656;SDS011;72357;52.110;5.252;2023-08-21T00:50:40;5.7;;;2.4;;
82656;SDS011;72357;52.110;5.252;2023-08-21T00:53:55;4.8;;;2.5;;
82656;SDS011;72357;52.110;5.252;2023-08-21T00:55:32;6.9;;;2.21;;
82656;SDS011;72357;52.110;5.252;2023-08-21T00:57:10;8.4;;;2.9;;
82656;SDS011;72357;52.110;5.252;2023-08-21T01:02:04;5.3;;;2.31;;
82656;SDS011;72357;52.110;5.252;2023-08-21T01:03:41;8.5;;;2.7;;
82656;SDS011;72357;52.110;5.252;2023-08-21T01:05:17;4.7;;;2.6;;
82656;SDS011;72357;52.110;5.252;2023-08-21T01:08:35;8.5;;;2.7;;
82656;SDS011;72357;52.110;5.252;2023-08-21T01:10:26;6.7;;;2.7;;
82656;SDS011;72357;52.110;5.252;2023-08-21T01:12:20;6.4;;;2.6;;
82656;SDS011;72357;52.110;5.252;2023-08-21T01:14:12;6.5;;;2.7;;
82656;SDS011;72357;52.110;5.252;2023-08-21T01:15:59;6.9;;;2.8;;
82656;SDS011;72357;52.110;5.252;2023-08-21T01:19:19;6.4;;;2.4;;
82656;SDS011;72357;52.110;5.252;2023-08-21T01:21:07;4.91;;;2.7;;
82656;SDS011;72357;52.110;5.252;2023-08-21T01:22:44;7.4;;;2.8;;
82656;SDS011;72357;52.110;5.252;2023-08-21T01:24:20;5.7;;;2.8;;
82656;SDS011;72357;52.110;5.252;2023-08-21T01:27:34;7.6;;;2.9;;
82656;SDS011;72357;52.110;5.252;2023-08-21T01:29:12;7.3;;;2.9;;
82656;SDS011;72357;52.110;5.252;2023-08-21T01:30:49;7.8;;;2.8;;
82656;SDS011;72357;52.110;5.252;2023-08-21T01:32:32;6.4;;;3.0;;
82656;SDS011;72357;52.110;5.252;2023-08-21T01:36:06;7.0;;;2.9;;
82656;SDS011;72357;52.110;5.252;2023-08-21T01:37:43;7.7;;;2.6;;
82656;SDS011;72357;52.110;5.252;2023-08-21T01:39:20;3.8;;;2.21;;
82656;SDS011;72357;52.110;5.252;2023-08-21T01:40:59;9.0;;;2.8;;
82656;SDS011;72357;52.110;5.252;2023-08-21T01:44:13;5.8;;;2.8;;
82656;SDS011;72357;52.110;5.252;2023-08-21T01:45:50;3.7;;;2.31;;
82656;SDS011;72357;52.110;5.252;2023-08-21T01:47:27;5.3;;;2.7;;
82656;SDS011;72357;52.110;5.252;2023-08-21T01:50:41;6.2;;;3.1;;
82656;SDS011;72357;52.110;5.252;2023-08-21T01:52:17;5.8;;;2.5;;
82656;SDS011;72357;52.110;5.252;2023-08-21T01:53:54;5.4;;;2.4;;
82656;SDS011;72357;52.110;5.252;2023-08-21T01:55:31;4.5;;;2.21;;
82656;SDS011;72357;52.110;5.252;2023-08-21T01:58:45;6.9;;;2.6;;
82656;SDS011;72357;52.110;5.252;2023-08-21T02:00:21;5.11;;;2.7;;
82656;SDS011;72357;52.110;5.252;2023-08-21T02:01:58;7.5;;;2.9;;
82656;SDS011;72357;52.110;5.252;2023-08-21T02:05:12;6.9;;;3.1;;
82656;SDS011;72357;52.110;5.252;2023-08-21T02:06:49;8.0;;;2.9;;
82656;SDS011;72357;52.110;5.252;2023-08-21T02:08:27;6.9;;;2.7;;
82656;SDS011;72357;52.110;5.252;2023-08-21T02:11:46;4.61;;;2.6;;
82656;SDS011;72357;52.110;5.252;2023-08-21T02:13:23;4.61;;;2.21;;
82656;SDS011;72357;52.110;5.252;2023-08-21T02:15:00;4.5;;;2.4;;
82656;SDS011;72357;52.110;5.252;2023-08-21T02:16:37;3.7;;;1.9;;
82656;SDS011;72357;52.110;5.252;2023-08-21T02:19:51;6.3;;;3.0;;
82656;SDS011;72357;52.110;5.252;2023-08-21T02:21:27;7.0;;;2.8;;
82656;SDS011;72357;52.110;5.252;2023-08-21T02:23:04;6.8;;;2.8;;
82656;SDS011;72357;52.110;5.252;2023-08-21T02:26:17;7.7;;;3.1;;
82656;SDS011;72357;52.110;5.252;2023-08-21T02:27:54;6.8;;;2.6;;
82656;SDS011;72357;52.110;5.252;2023-08-21T02:29:31;5.8;;;3.2;;
82656;SDS011;72357;52.110;5.252;2023-08-21T02:31:08;7.9;;;3.4;;
82656;SDS011;72357;52.110;5.252;2023-08-21T02:34:22;5.8;;;2.7;;
82656;SDS011;72357;52.110;5.252;2023-08-21T02:36:00;4.5;;;2.5;;
82656;SDS011;72357;52.110;5.252;2023-08-21T02:37:37;5.8;;;2.6;;
82656;SDS011;72357;52.110;5.252;2023-08-21T02:40:50;7.0;;;2.6;;
82656;SDS011;72357;52.110;5.252;2023-08-21T02:42:27;7.0;;;3.3;;
82656;SDS011;72357;52.110;5.252;2023-08-21T02:44:04;6.4;;;3.1;;
82656;SDS011;72357;52.110;5.252;2023-08-21T02:45:41;5.4;;;2.6;;
82656;SDS011;72357;52.110;5.252;2023-08-21T02:48:55;5.9;;;3.1;;
82656;SDS011;72357;52.110;5.252;2023-08-21T02:50:32;6.9;;;2.8;;
82656;SDS011;72357;52.110;5.252;2023-08-21T02:52:09;6.3;;;2.7;;
82656;SDS011;72357;52.110;5.252;2023-08-21T02:55:21;5.4;;;3.3;;
82656;SDS011;72357;52.110;5.252;2023-08-21T02:56:59;9.21;;;3.8;;
82656;SDS011;72357;52.110;5.252;2023-08-21T02:58:36;7.8;;;3.2;;
82656;SDS011;72357;52.110;5.252;2023-08-21T03:01:50;7.1;;;2.9;;
82656;SDS011;72357;52.110;5.252;2023-08-21T03:03:27;6.4;;;2.9;;
82656;SDS011;72357;52.110;5.252;2023-08-21T03:05:04;4.2;;;2.6;;
82656;SDS011;72357;52.110;5.252;2023-08-21T03:06:41;5.7;;;3.1;;
82656;SDS011;72357;52.110;5.252;2023-08-21T03:09:54;7.5;;;3.3;;
82656;SDS011;72357;52.110;5.252;2023-08-21T03:11:31;6.1;;;3.0;;
82656;SDS011;72357;52.110;5.252;2023-08-21T03:13:08;6.5;;;3.0;;
82656;SDS011;72357;52.110;5.252;2023-08-21T03:16:23;6.9;;;3.4;;
82656;SDS011;72357;52.110;5.252;2023-08-21T03:18:00;5.0;;;2.8;;
82656;SDS011;72357;52.110;5.252;2023-08-21T03:19:37;8.2;;;3.4;;
82656;SDS011;72357;52.110;5.252;2023-08-21T03:22:51;6.4;;;3.4;;
82656;SDS011;72357;52.110;5.252;2023-08-21T03:24:28;5.2;;;2.7;;
82656;SDS011;72357;52.110;5.252;2023-08-21T03:26:05;5.8;;;2.7;;
82656;SDS011;72357;52.110;5.252;2023-08-21T03:27:42;7.0;;;3.0;;
82656;SDS011;72357;52.110;5.252;2023-08-21T03:30:55;5.4;;;2.7;;
82656;SDS011;72357;52.110;5.252;2023-08-21T03:32:32;4.0;;;2.7;;
82656;SDS011;72357;52.110;5.252;2023-08-21T03:34:09;4.41;;;2.6;;
82656;SDS011;72357;52.110;5.252;2023-08-21T03:37:23;6.2;;;2.7;;
82656;SDS011;72357;52.110;5.252;2023-08-21T03:39:00;7.0;;;2.7;;
82656;SDS011;72357;52.110;5.252;2023-08-21T03:40:38;5.7;;;3.1;;
82656;SDS011;72357;52.110;5.252;2023-08-21T03:42:16;4.2;;;3.0;;
82656;SDS011;72357;52.110;5.252;2023-08-21T03:45:30;6.8;;;2.8;;
82656;SDS011;72357;52.110;5.252;2023-08-21T03:47:07;5.9;;;2.8;;
82656;SDS011;72357;52.110;5.252;2023-08-21T03:48:45;6.0;;;3.5;;
82656;SDS011;72357;52.110;5.252;2023-08-21T03:51:58;6.2;;;3.3;;
82656;SDS011;72357;52.110;5.252;2023-08-21T03:53:36;5.4;;;2.9;;
82656;SDS011;72357;52.110;5.252;2023-08-21T03:55:13;5.3;;;2.7;;
82656;SDS011;72357;52.110;5.252;2023-08-21T03:56:50;5.8;;;3.2;;
82656;SDS011;72357;52.110;5.252;2023-08-21T04:00:05;7.1;;;2.9;;
82656;SDS011;72357;52.110;5.252;2023-08-21T04:01:43;5.2;;;2.9;;
82656;SDS011;72357;52.110;5.252;2023-08-21T04:03:20;6.1;;;2.9;;
82656;SDS011;72357;52.110;5.252;2023-08-21T04:06:35;5.7;;;2.5;;
82656;SDS011;72357;52.110;5.252;2023-08-21T04:08:13;5.2;;;2.6;;
82656;SDS011;72357;52.110;5.252;2023-08-21T04:09:50;6.3;;;3.2;;
82656;SDS011;72357;52.110;5.252;2023-08-21T04:13:05;6.1;;;3.2;;
82656;SDS011;72357;52.110;5.252;2023-08-21T04:14:41;5.6;;;3.0;;
82656;SDS011;72357;52.110;5.252;2023-08-21T04:16:18;5.5;;;2.6;;
82656;SDS011;72357;52.110;5.252;2023-08-21T04:17:55;4.3;;;2.5;;
82656;SDS011;72357;52.110;5.252;2023-08-21T04:21:09;6.0;;;3.0;;
82656;SDS011;72357;52.110;5.252;2023-08-21T04:22:47;4.7;;;2.8;;
82656;SDS011;72357;52.110;5.252;2023-08-21T04:24:24;6.4;;;2.8;;
82656;SDS011;72357;52.110;5.252;2023-08-21T04:27:38;5.3;;;2.9;;
82656;SDS011;72357;52.110;5.252;2023-08-21T04:29:15;4.3;;;2.7;;
82656;SDS011;72357;52.110;5.252;2023-08-21T04:30:52;4.41;;;2.4;;
82656;SDS011;72357;52.110;5.252;2023-08-21T04:32:29;4.0;;;2.4;;
82656;SDS011;72357;52.110;5.252;2023-08-21T04:35:43;4.3;;;2.21;;
82656;SDS011;72357;52.110;5.252;2023-08-21T04:37:20;3.8;;;2.21;;
82656;SDS011;72357;52.110;5.252;2023-08-21T04:38:57;4.7;;;2.31;;
82656;SDS011;72357;52.110;5.252;2023-08-21T04:42:11;4.0;;;2.7;;
82656;SDS011;72357;52.110;5.252;2023-08-21T04:43:48;5.11;;;2.5;;
82656;SDS011;72357;52.110;5.252;2023-08-21T04:45:25;6.5;;;3.6;;
82656;SDS011;72357;52.110;5.252;2023-08-21T04:48:57;6.1;;;2.9;;
82656;SDS011;72357;52.110;5.252;2023-08-21T04:50:34;7.1;;;3.3;;
82656;SDS011;72357;52.110;5.252;2023-08-21T04:53:48;5.2;;;3.5;;
82656;SDS011;72357;52.110;5.252;2023-08-21T04:55:25;4.5;;;2.6;;
82656;SDS011;72357;52.110;5.252;2023-08-21T04:58:38;5.4;;;2.9;;
82656;SDS011;72357;52.110;5.252;2023-08-21T05:00:15;4.91;;;3.4;;
82656;SDS011;72357;52.110;5.252;2023-08-21T05:01:53;6.5;;;3.3;;
82656;SDS011;72357;52.110;5.252;2023-08-21T05:05:07;4.3;;;2.4;;
82656;SDS011;72357;52.110;5.252;2023-08-21T05:06:44;4.91;;;2.6;;
82656;SDS011;72357;52.110;5.252;2023-08-21T05:08:24;5.0;;;2.6;;
82656;SDS011;72357;52.110;5.252;2023-08-21T05:11:40;4.0;;;2.8;;
82656;SDS011;72357;52.110;5.252;2023-08-21T05:13:17;4.41;;;2.4;;
82656;SDS011;72357;52.110;5.252;2023-08-21T05:14:54;9.1;;;3.5;;
82656;SDS011;72357;52.110;5.252;2023-08-21T05:16:31;5.8;;;3.1;;
82656;SDS011;72357;52.110;5.252;2023-08-21T05:19:45;5.3;;;3.1;;
82656;SDS011;72357;52.110;5.252;2023-08-21T05:21:22;4.2;;;2.8;;
82656;SDS011;72357;52.110;5.252;2023-08-21T05:23:00;7.2;;;3.7;;
82656;SDS011;72357;52.110;5.252;2023-08-21T05:26:14;5.0;;;3.5;;
82656;SDS011;72357;52.110;5.252;2023-08-21T05:27:51;5.0;;;3.5;;
82656;SDS011;72357;52.110;5.252;2023-08-21T05:29:28;5.2;;;2.9;;
82656;SDS011;72357;52.110;5.252;2023-08-21T05:31:05;4.41;;;2.8;;
82656;SDS011;72357;52.110;5.252;2023-08-21T05:34:19;9.21;;;3.5;;
82656;SDS011;72357;52.110;5.252;2023-08-21T05:35:56;5.6;;;3.0;;
82656;SDS011;72357;52.110;5.252;2023-08-21T05:37:33;5.8;;;2.9;;
82656;SDS011;72357;52.110;5.252;2023-08-21T05:40:48;7.6;;;3.3;;
82656;SDS011;72357;52.110;5.252;2023-08-21T05:42:26;5.0;;;2.9;;
82656;SDS011;72357;52.110;5.252;2023-08-21T05:44:02;4.7;;;2.7;;
82656;SDS011;72357;52.110;5.252;2023-08-21T05:45:40;5.9;;;2.6;;
82656;SDS011;72357;52.110;5.252;2023-08-21T05:48:54;5.3;;;2.5;;
82656;SDS011;72357;52.110;5.252;2023-08-21T05:50:30;5.2;;;2.6;;
82656;SDS011;72357;52.110;5.252;2023-08-21T05:52:08;4.0;;;2.5;;
82656;SDS011;72357;52.110;5.252;2023-08-21T05:55:23;6.3;;;3.2;;
82656;SDS011;72357;52.110;5.252;2023-08-21T05:57:02;5.6;;;2.9;;
82656;SDS011;72357;52.110;5.252;2023-08-21T05:58:39;6.6;;;3.3;;
82656;SDS011;72357;52.110;5.252;2023-08-21T06:01:54;5.0;;;3.1;;
82656;SDS011;72357;52.110;5.252;2023-08-21T06:03:31;4.2;;;2.7;;
82656;SDS011;72357;52.110;5.252;2023-08-21T06:05:09;5.6;;;2.9;;
82656;SDS011;72357;52.110;5.252;2023-08-21T06:06:46;6.9;;;2.8;;
82656;SDS011;72357;52.110;5.252;2023-08-21T06:10:00;3.6;;;2.8;;
82656;SDS011;72357;52.110;5.252;2023-08-21T06:11:37;5.2;;;2.7;;
82656;SDS011;72357;52.110;5.252;2023-08-21T06:13:14;5.11;;;2.6;;
82656;SDS011;72357;52.110;5.252;2023-08-21T06:16:30;5.5;;;2.8;;
82656;SDS011;72357;52.110;5.252;2023-08-21T06:19:44;8.2;;;5.5;;
82656;SDS011;72357;52.110;5.252;2023-08-21T06:21:21;7.4;;;4.0;;
82656;SDS011;72357;52.110;5.252;2023-08-21T06:24:35;6.7;;;3.4;;
82656;SDS011;72357;52.110;5.252;2023-08-21T06:26:12;6.1;;;3.1;;
82656;SDS011;72357;52.110;5.252;2023-08-21T06:27:49;4.91;;;2.9;;
82656;SDS011;72357;52.110;5.252;2023-08-21T06:31:03;4.61;;;2.5;;
82656;SDS011;72357;52.110;5.252;2023-08-21T06:32:40;6.5;;;2.6;;
82656;SDS011;72357;52.110;5.252;2023-08-21T06:34:17;6.8;;;3.0;;
82656;SDS011;72357;52.110;5.252;2023-08-21T06:35:54;6.7;;;2.9;;
82656;SDS011;72357;52.110;5.252;2023-08-21T06:39:09;5.5;;;3.1;;
82656;SDS011;72357;52.110;5.252;2023-08-21T06:40:46;8.81;;;3.2;;
82656;SDS011;72357;52.110;5.252;2023-08-21T06:42:23;5.6;;;3.4;;
82656;SDS011;72357;52.110;5.252;2023-08-21T06:45:37;4.8;;;2.8;;
82656;SDS011;72357;52.110;5.252;2023-08-21T06:47:14;5.11;;;2.6;;
82656;SDS011;72357;52.110;5.252;2023-08-21T06:48:50;7.6;;;3.1;;
82656;SDS011;72357;52.110;5.252;2023-08-21T06:52:05;6.6;;;2.7;;
82656;SDS011;72357;52.110;5.252;2023-08-21T06:53:42;4.7;;;2.7;;
82656;SDS011;72357;52.110;5.252;2023-08-21T06:55:19;7.7;;;2.7;;
82656;SDS011;72357;52.110;5.252;2023-08-21T06:56:56;4.0;;;2.6;;
82656;SDS011;72357;52.110;5.252;2023-08-21T07:00:11;4.61;;;2.7;;
82656;SDS011;72357;52.110;5.252;2023-08-21T07:01:49;4.8;;;2.6;;
82656;SDS011;72357;52.110;5.252;2023-08-21T07:03:26;5.2;;;2.5;;
82656;SDS011;72357;52.110;5.252;2023-08-21T07:06:41;5.0;;;2.5;;
82656;SDS011;72357;52.110;5.252;2023-08-21T07:08:18;6.0;;;2.6;;
82656;SDS011;72357;52.110;5.252;2023-08-21T07:09:55;5.6;;;2.8;;
82656;SDS011;72357;52.110;5.252;2023-08-21T07:11:32;7.7;;;3.0;;
82656;SDS011;72357;52.110;5.252;2023-08-21T07:14:46;5.5;;;2.7;;
82656;SDS011;72357;52.110;5.252;2023-08-21T07:16:23;6.6;;;2.7;;
82656;SDS011;72357;52.110;5.252;2023-08-21T07:18:00;6.1;;;3.1;;
82656;SDS011;72357;52.110;5.252;2023-08-21T07:21:14;6.8;;;2.7;;
82656;SDS011;72357;52.110;5.252;2023-08-21T07:22:51;6.3;;;2.7;;
82656;SDS011;72357;52.110;5.252;2023-08-21T07:24:28;6.0;;;2.8;;
82656;SDS011;72357;52.110;5.252;2023-08-21T07:26:05;5.5;;;2.4;;
82656;SDS011;72357;52.110;5.252;2023-08-21T07:29:19;5.5;;;2.7;;
82656;SDS011;72357;52.110;5.252;2023-08-21T07:30:56;6.8;;;2.5;;
82656;SDS011;72357;52.110;5.252;2023-08-21T07:32:34;7.3;;;2.8;;
82656;SDS011;72357;52.110;5.252;2023-08-21T07:35:56;6.4;;;2.7;;
82656;SDS011;72357;52.110;5.252;2023-08-21T07:37:34;8.2;;;2.4;;
82656;SDS011;72357;52.110;5.252;2023-08-21T07:39:11;7.6;;;2.5;;
82656;SDS011;72357;52.110;5.252;2023-08-21T07:40:48;6.1;;;2.21;;
82656;SDS011;72357;52.110;5.252;2023-08-21T07:44:01;9.21;;;2.7;;
82656;SDS011;72357;52.110;5.252;2023-08-21T07:45:38;6.3;;;2.0;;
82656;SDS011;72357;52.110;5.252;2023-08-21T07:47:15;6.4;;;2.5;;
82656;SDS011;72357;52.110;5.252;2023-08-21T07:50:30;8.4;;;2.4;;
82656;SDS011;72357;52.110;5.252;2023-08-21T07:52:08;5.8;;;2.4;;
82656;SDS011;72357;52.110;5.252;2023-08-21T07:53:45;6.2;;;2.31;;
82656;SDS011;72357;52.110;5.252;2023-08-21T07:55:23;6.9;;;2.21;;
82656;SDS011;72357;52.110;5.252;2023-08-21T07:58:36;8.5;;;2.5;;
82656;SDS011;72357;52.110;5.252;2023-08-21T08:00:14;6.2;;;2.31;;
82656;SDS011;72357;52.110;5.252;2023-08-21T08:01:52;5.9;;;2.1;;
82656;SDS011;72357;52.110;5.252;2023-08-21T08:05:07;5.5;;;2.1;;
82656;SDS011;72357;52.110;5.252;2023-08-21T08:06:44;6.3;;;1.9;;
82656;SDS011;72357;52.110;5.252;2023-08-21T08:10:02;6.7;;;2.0;;
82656;SDS011;72357;52.110;5.252;2023-08-21T08:11:39;6.4;;;1.8;;
82656;SDS011;72357;52.110;5.252;2023-08-21T08:13:16;6.5;;;2.21;;
82656;SDS011;72357;52.110;5.252;2023-08-21T08:14:53;5.6;;;1.8;;
82656;SDS011;72357;52.110;5.252;2023-08-21T08:18:10;5.3;;;1.8;;
82656;SDS011;72357;52.110;5.252;2023-08-21T08:19:48;6.1;;;1.8;;
82656;SDS011;72357;52.110;5.252;2023-08-21T08:21:25;8.31;;;1.9;;
82656;SDS011;72357;52.110;5.252;2023-08-21T08:24:40;4.5;;;1.7;;
82656;SDS011;72357;52.110;5.252;2023-08-21T08:26:17;4.5;;;1.7;;
82656;SDS011;72357;52.110;5.252;2023-08-21T08:27:54;6.8;;;2.0;;
82656;SDS011;72357;52.110;5.252;2023-08-21T08:29:32;5.6;;;1.7;;
82656;SDS011;72357;52.110;5.252;2023-08-21T08:32:51;7.9;;;2.1;;
82656;SDS011;72357;52.110;5.252;2023-08-21T08:34:28;7.9;;;1.9;;
82656;SDS011;72357;52.110;5.252;2023-08-21T08:36:06;6.3;;;1.8;;
82656;SDS011;72357;52.110;5.252;2023-08-21T08:37:44;8.81;;;2.0;;
82656;SDS011;72357;52.110;5.252;2023-08-21T08:40:58;8.81;;;2.0;;
82656;SDS011;72357;52.110;5.252;2023-08-21T08:42:38;5.11;;;2.21;;
82656;SDS011;72357;52.110;5.252;2023-08-21T08:44:16;6.8;;;2.0;;
82656;SDS011;72357;52.110;5.252;2023-08-21T08:47:33;6.5;;;1.8;;
82656;SDS011;72357;52.110;5.252;2023-08-21T08:49:13;6.6;;;1.7;;
82656;SDS011;72357;52.110;5.252;2023-08-21T08:50:50;5.8;;;1.8;;
82656;SDS011;72357;52.110;5.252;2023-08-21T08:52:29;6.7;;;1.9;;
82656;SDS011;72357;52.110;5.252;2023-08-21T08:55:48;5.5;;;2.21;;
82656;SDS011;72357;52.110;5.252;2023-08-21T08:57:25;6.2;;;1.7;;
82656;SDS011;72357;52.110;5.252;2023-08-21T08:59:03;8.81;;;2.0;;
82656;SDS011;72357;52.110;5.252;2023-08-21T09:02:17;6.6;;;1.9;;
82656;SDS011;72357;52.110;5.252;2023-08-21T09:03:55;6.1;;;1.9;;
82656;SDS011;72357;52.110;5.252;2023-08-21T09:05:32;5.2;;;1.7;;
82656;SDS011;72357;52.110;5.252;2023-08-21T09:07:11;6.9;;;1.7;;
82656;SDS011;72357;52.110;5.252;2023-08-21T09:10:35;5.5;;;1.6;;
82656;SDS011;72357;52.110;5.252;2023-08-21T09:12:13;5.9;;;1.7;;
82656;SDS011;72357;52.110;5.252;2023-08-21T09:13:52;4.3;;;1.7;;
82656;SDS011;72357;52.110;5.252;2023-08-21T09:15:30;5.8;;;1.9;;
82656;SDS011;72357;52.110;5.252;2023-08-21T09:18:47;6.0;;;2.1;;
82656;SDS011;72357;52.110;5.252;2023-08-21T09:20:24;4.61;;;1.5;;
82656;SDS011;72357;52.110;5.252;2023-08-21T09:22:07;8.2;;;1.9;;
82656;SDS011;72357;52.110;5.252;2023-08-21T09:23:48;5.5;;;2.1;;
82656;SDS011;72357;52.110;5.252;2023-08-21T09:27:04;6.5;;;2.0;;
82656;SDS011;72357;52.110;5.252;2023-08-21T09:28:50;4.61;;;1.8;;
82656;SDS011;72357;52.110;5.252;2023-08-21T09:30:28;5.6;;;2.1;;
82656;SDS011;72357;52.110;5.252;2023-08-21T09:32:05;7.1;;;2.31;;
82656;SDS011;72357;52.110;5.252;2023-08-21T09:35:20;8.9;;;2.4;;
82656;SDS011;72357;52.110;5.252;2023-08-21T09:36:58;7.5;;;2.31;;
82656;SDS011;72357;52.110;5.252;2023-08-21T09:38:37;7.0;;;2.0;;
82656;SDS011;72357;52.110;5.252;2023-08-21T09:41:55;6.5;;;2.1;;
82656;SDS011;72357;52.110;5.252;2023-08-21T09:43:37;6.8;;;2.0;;
82656;SDS011;72357;52.110;5.252;2023-08-21T09:45:20;5.2;;;2.21;;
82656;SDS011;72357;52.110;5.252;2023-08-21T09:46:57;8.81;;;2.5;;
82656;SDS011;72357;52.110;5.252;2023-08-21T09:50:13;7.6;;;2.4;;
82656;SDS011;72357;52.110;5.252;2023-08-21T09:51:50;6.1;;;2.0;;
82656;SDS011;72357;52.110;5.252;2023-08-21T09:53:29;6.1;;;2.0;;
82656;SDS011;72357;52.110;5.252;2023-08-21T09:55:07;8.71;;;2.6;;
82656;SDS011;72357;52.110;5.252;2023-08-21T09:58:24;6.7;;;2.1;;
82656;SDS011;72357;52.110;5.252;2023-08-21T10:00:02;8.0;;;2.4;;
82656;SDS011;72357;52.110;5.252;2023-08-21T10:01:40;5.2;;;1.8;;
82656;SDS011;72357;52.110;5.252;2023-08-21T10:04:58;6.5;;;2.1;;
82656;SDS011;72357;52.110;5.252;2023-08-21T10:06:36;7.8;;;2.1;;
82656;SDS011;72357;52.110;5.252;2023-08-21T10:08:15;5.4;;;2.4;;
82656;SDS011;72357;52.110;5.252;2023-08-21T10:09:54;5.11;;;2.0;;
82656;SDS011;72357;52.110;5.252;2023-08-21T10:13:11;7.5;;;2.5;;
82656;SDS011;72357;52.110;5.252;2023-08-21T10:14:48;6.5;;;2.5;;
82656;SDS011;72357;52.110;5.252;2023-08-21T10:16:25;6.8;;;2.6;;
82656;SDS011;72357;52.110;5.252;2023-08-21T10:19:55;7.8;;;2.31;;
82656;SDS011;72357;52.110;5.252;2023-08-21T10:21:34;5.0;;;2.0;;
82656;SDS011;72357;52.110;5.252;2023-08-21T10:23:23;5.2;;;1.8;;
82656;SDS011;72357;52.110;5.252;2023-08-21T10:25:02;5.2;;;2.1;;
82656;SDS011;72357;52.110;5.252;2023-08-21T10:26:39;6.7;;;2.5;;
82656;SDS011;72357;52.110;5.252;2023-08-21T10:29:56;7.0;;;2.21;;
82656;SDS011;72357;52.110;5.252;2023-08-21T10:31:34;7.9;;;2.6;;
82656;SDS011;72357;52.110;5.252;2023-08-21T10:33:12;5.2;;;2.6;;
82656;SDS011;72357;52.110;5.252;2023-08-21T10:37:33;7.3;;;2.6;;
82656;SDS011;72357;52.110;5.252;2023-08-21T10:39:12;8.1;;;2.4;;
82656;SDS011;72357;52.110;5.252;2023-08-21T10:42:44;5.4;;;2.9;;
82656;SDS011;72357;52.110;5.252;2023-08-21T10:44:38;7.8;;;2.4;;
82656;SDS011;72357;52.110;5.252;2023-08-21T10:46:45;6.3;;;2.4;;
82656;SDS011;72357;52.110;5.252;2023-08-21T10:48:27;5.4;;;2.1;;
82656;SDS011;72357;52.110;5.252;2023-08-21T10:50:04;5.5;;;2.1;;
82656;SDS011;72357;52.110;5.252;2023-08-21T10:51:43;7.2;;;2.4;;
82656;SDS011;72357;52.110;5.252;2023-08-21T10:55:01;7.5;;;2.0;;
82656;SDS011;72357;52.110;5.252;2023-08-21T10:56:39;7.9;;;2.21;;
82656;SDS011;72357;52.110;5.252;2023-08-21T10:58:16;7.6;;;1.9;;
82656;SDS011;72357;52.110;5.252;2023-08-21T11:01:48;5.4;;;1.8;;
82656;SDS011;72357;52.110;5.252;2023-08-21T11:03:25;5.9;;;1.8;;
82656;SDS011;72357;52.110;5.252;2023-08-21T11:05:02;6.3;;;1.9;;
82656;SDS011;72357;52.110;5.252;2023-08-21T11:06:39;6.1;;;2.0;;
82656;SDS011;72357;52.110;5.252;2023-08-21T11:09:55;6.4;;;1.8;;
82656;SDS011;72357;52.110;5.252;2023-08-21T11:11:34;5.3;;;1.5;;
82656;SDS011;72357;52.110;5.252;2023-08-21T11:13:11;5.5;;;1.6;;
82656;SDS011;72357;52.110;5.252;2023-08-21T11:14:48;4.61;;;1.2;;
82656;SDS011;72357;52.110;5.252;2023-08-21T11:18:01;3.2;;;1.3;;
82656;SDS011;72357;52.110;5.252;2023-08-21T11:19:38;4.1;;;1.3;;
82656;SDS011;72357;52.110;5.252;2023-08-21T11:21:16;4.2;;;1.5;;
82656;SDS011;72357;52.110;5.252;2023-08-21T11:24:40;2.9;;;0.9;;
82656;SDS011;72357;52.110;5.252;2023-08-21T11:26:20;2.31;;;0.8;;
82656;SDS011;72357;52.110;5.252;2023-08-21T11:27:57;2.5;;;0.7;;
82656;SDS011;72357;52.110;5.252;2023-08-21T11:29:36;2.31;;;0.8;;
82656;SDS011;72357;52.110;5.252;2023-08-21T11:33:04;5.0;;;0.8;;
82656;SDS011;72357;52.110;5.252;2023-08-21T11:34:41;3.6;;;1.0;;
82656;SDS011;72357;52.110;5.252;2023-08-21T11:36:18;3.1;;;1.0;;
82656;SDS011;72357;52.110;5.252;2023-08-21T11:37:55;3.1;;;1.0;;
82656;SDS011;72357;52.110;5.252;2023-08-21T11:41:19;2.8;;;1.11;;
82656;SDS011;72357;52.110;5.252;2023-08-21T11:42:59;3.2;;;1.3;;
82656;SDS011;72357;52.110;5.252;2023-08-21T11:44:41;4.2;;;1.5;;
82656;SDS011;72357;52.110;5.252;2023-08-21T11:46:18;3.8;;;1.5;;
82656;SDS011;72357;52.110;5.252;2023-08-21T11:49:32;4.7;;;1.6;;
82656;SDS011;72357;52.110;5.252;2023-08-21T11:51:08;3.1;;;1.5;;
82656;SDS011;72357;52.110;5.252;2023-08-21T11:52:44;3.5;;;1.0;;
82656;SDS011;72357;52.110;5.252;2023-08-21T11:55:56;5.0;;;1.9;;
82656;SDS011;72357;52.110;5.252;2023-08-21T11:57:33;4.5;;;1.6;;
82656;SDS011;72357;52.110;5.252;2023-08-21T11:59:09;3.7;;;1.5;;
82656;SDS011;72357;52.110;5.252;2023-08-21T12:00:46;4.41;;;1.5;;
82656;SDS011;72357;52.110;5.252;2023-08-21T12:04:01;4.3;;;1.5;;
82656;SDS011;72357;52.110;5.252;2023-08-21T12:05:50;5.9;;;1.8;;
82656;SDS011;72357;52.110;5.252;2023-08-21T12:07:26;4.3;;;1.6;;
82656;SDS011;72357;52.110;5.252;2023-08-21T12:12:15;5.4;;;1.6;;
82656;SDS011;72357;52.110;5.252;2023-08-21T12:13:52;3.6;;;1.5;;
82656;SDS011;72357;52.110;5.252;2023-08-21T12:15:28;3.7;;;1.3;;
82656;SDS011;72357;52.110;5.252;2023-08-21T12:18:41;3.8;;;1.3;;
82656;SDS011;72357;52.110;5.252;2023-08-21T12:20:18;4.7;;;1.5;;
82656;SDS011;72357;52.110;5.252;2023-08-21T12:21:54;2.9;;;1.6;;
82656;SDS011;72357;52.110;5.252;2023-08-21T12:25:08;3.4;;;1.2;;
82656;SDS011;72357;52.110;5.252;2023-08-21T12:26:45;3.7;;;1.2;;
82656;SDS011;72357;52.110;5.252;2023-08-21T12:28:22;3.1;;;1.2;;
82656;SDS011;72357;52.110;5.252;2023-08-21T12:29:58;3.6;;;1.3;;
82656;SDS011;72357;52.110;5.252;2023-08-21T12:33:10;4.5;;;1.4;;
82656;SDS011;72357;52.110;5.252;2023-08-21T12:34:47;3.5;;;1.3;;
82656;SDS011;72357;52.110;5.252;2023-08-21T12:36:24;3.0;;;1.0;;
82656;SDS011;72357;52.110;5.252;2023-08-21T12:39:36;3.3;;;1.3;;
82656;SDS011;72357;52.110;5.252;2023-08-21T12:41:13;3.9;;;1.2;;
82656;SDS011;72357;52.110;5.252;2023-08-21T12:42:50;3.9;;;1.2;;
82656;SDS011;72357;52.110;5.252;2023-08-21T12:46:03;4.1;;;1.2;;
82656;SDS011;72357;52.110;5.252;2023-08-21T12:47:39;3.4;;;1.4;;
82656;SDS011;72357;52.110;5.252;2023-08-21T12:49:16;4.0;;;1.4;;
82656;SDS011;72357;52.110;5.252;2023-08-21T12:50:52;2.31;;;1.2;;
82656;SDS011;72357;52.110;5.252;2023-08-21T12:54:04;4.2;;;1.3;;
82656;SDS011;72357;52.110;5.252;2023-08-21T12:55:40;4.5;;;1.11;;
82656;SDS011;72357;52.110;5.252;2023-08-21T12:57:16;4.91;;;1.2;;
82656;SDS011;72357;52.110;5.252;2023-08-21T13:02:04;2.6;;;0.9;;
82656;SDS011;72357;52.110;5.252;2023-08-21T13:03:43;4.1;;;1.11;;
82656;SDS011;72357;52.110;5.252;2023-08-21T13:06:58;4.0;;;1.3;;
82656;SDS011;72357;52.110;5.252;2023-08-21T13:08:35;5.4;;;1.2;;
82656;SDS011;72357;52.110;5.252;2023-08-21T13:10:12;4.91;;;1.4;;